createdAt,value
2023-04-18T00:00:31.173Z,100131.78
2023-04-18T00:03:15.845Z,100139.59
2023-04-18T00:05:44.063Z,100136.22
2023-04-18T00:08:11.294Z,100137.59
2023-04-18T00:10:38.110Z,100136.22
2023-04-18T00:13:05.267Z,100132.84
2023-04-18T00:15:32.343Z,100140.66
2023-04-18T00:18:00.910Z,100141.09
2023-04-18T00:20:27.885Z,100140.47
2023-04-18T00:22:55.084Z,100146.19
2023-04-18T00:25:21.926Z,100152.84
2023-04-18T00:27:49.276Z,100146.78
2023-04-18T00:30:16.058Z,100148.78
2023-04-18T00:32:43.154Z,100153.22
2023-04-18T00:35:09.970Z,100152.56
2023-04-18T00:37:37.414Z,100151.44
2023-04-18T00:40:05.650Z,100149.63
2023-04-18T00:42:33.594Z,100151.31
2023-04-18T00:45:01.560Z,100153.00
2023-04-18T00:47:28.801Z,100151.19
2023-04-18T00:49:55.885Z,100155.75
2023-04-18T00:52:26.071Z,100148.66
2023-04-18T00:54:53.628Z,100148.47
2023-04-18T00:57:22.170Z,100149.25
2023-04-18T00:59:49.664Z,100141.31
2023-04-18T01:02:17.402Z,100142.16
2023-04-18T01:04:44.307Z,100138.66
2023-04-18T01:07:11.861Z,100131.69
2023-04-18T01:09:39.047Z,100137.81
2023-04-18T01:12:06.333Z,100138.66
2023-04-18T01:14:33.142Z,100144.03
2023-04-18T01:17:01.513Z,100145.91
2023-04-18T01:19:28.342Z,100137.25
2023-04-18T01:21:55.380Z,100137.25
2023-04-18T01:24:24.621Z,100137.97
2023-04-18T01:26:52.013Z,100133.66
2023-04-18T01:29:18.921Z,100136.41
2023-04-18T01:31:46.261Z,100134.50
2023-04-18T01:34:13.562Z,100129.97
2023-04-18T01:36:40.847Z,100126.50
2023-04-18T01:39:07.775Z,100134.41
2023-04-18T01:41:35.075Z,100133.66
2023-04-18T01:44:01.873Z,100142.66
2023-04-18T01:46:29.180Z,100135.88
2023-04-18T01:48:56.657Z,100136.94
2023-04-18T01:51:23.788Z,100141.47
2023-04-18T01:53:50.642Z,100135.34
2023-04-18T01:56:17.812Z,100132.69
2023-04-18T01:58:47.500Z,100143.38
2023-04-18T02:01:14.690Z,100133.53
2023-04-18T02:03:41.737Z,100138.81
2023-04-18T02:06:10.038Z,100139.88
2023-04-18T02:08:36.850Z,100144.03
2023-04-18T02:11:03.920Z,100146.00
2023-04-18T02:13:31.057Z,100138.81
2023-04-18T02:15:58.171Z,100147.63
2023-04-18T02:18:26.625Z,100146.75
2023-04-18T02:20:53.784Z,100147.63
2023-04-18T02:23:20.622Z,100145.91
2023-04-18T02:25:47.913Z,100139.56
2023-04-18T02:28:14.742Z,100139.47
2023-04-18T02:30:41.781Z,100141.81
2023-04-18T02:33:08.613Z,100140.19
2023-04-18T02:35:37.591Z,100141.81
2023-04-18T02:38:04.557Z,100142.84
2023-04-18T02:40:31.602Z,100140.97
2023-04-18T02:42:58.439Z,100150.66
2023-04-18T02:45:25.566Z,100147.94
2023-04-18T02:47:55.940Z,100147.94
2023-04-18T02:50:25.101Z,100148.03
2023-04-18T02:52:52.033Z,100152.25
2023-04-18T02:55:19.177Z,100151.53
2023-04-18T02:57:45.979Z,100148.97
2023-04-18T03:00:13.781Z,100156.91
2023-04-18T03:02:41.020Z,100153.31
2023-04-18T03:05:08.501Z,100160.50
2023-04-18T03:07:35.710Z,100162.94
2023-04-18T03:10:03.049Z,100154.91
2023-04-18T03:12:29.866Z,100157.56
2023-04-18T03:14:56.897Z,100161.16
2023-04-18T03:17:23.726Z,100167.16
2023-04-18T03:19:50.812Z,100166.44
2023-04-18T03:22:17.762Z,100162.00
2023-04-18T03:24:47.793Z,100164.94
2023-04-18T03:27:14.698Z,100162.94
2023-04-18T03:29:41.756Z,100173.50
2023-04-18T03:32:08.534Z,100172.72
2023-04-18T03:34:36.103Z,100173.59
2023-04-18T03:37:02.864Z,100163.13
2023-04-18T03:39:29.961Z,100162.59
2023-04-18T03:41:56.761Z,100162.78
2023-04-18T03:44:23.822Z,100170.84
2023-04-18T03:46:50.687Z,100166.38
2023-04-18T03:49:17.748Z,100171.06
2023-04-18T03:51:49.882Z,100167.75
2023-04-18T03:54:17.220Z,100182.03
2023-04-18T03:56:45.117Z,100171.91
2023-04-18T03:59:12.560Z,100171.22
2023-04-18T04:01:42.194Z,100182.03
2023-04-18T04:04:11.997Z,100189.09
2023-04-18T04:06:39.209Z,100187.59
2023-04-18T04:09:06.433Z,100189.56
2023-04-18T04:11:33.300Z,100193.50
2023-04-18T04:14:00.550Z,100188.28
2023-04-18T04:16:28.421Z,100187.22
2023-04-18T04:18:55.638Z,100196.81
2023-04-18T04:21:22.459Z,100196.38
2023-04-18T04:23:49.604Z,100202.50
2023-04-18T04:26:16.551Z,100212.22
2023-04-18T04:28:46.482Z,100203.56
2023-04-18T04:31:16.454Z,100211.38
2023-04-18T04:33:44.268Z,100199.22
2023-04-18T04:36:16.169Z,100208.09
2023-04-18T04:38:45.102Z,100216.03
2023-04-18T04:41:12.754Z,100219.56
2023-04-18T04:43:41.289Z,100210.91
2023-04-18T04:46:08.748Z,100216.94
2023-04-18T04:48:35.932Z,100219.06
2023-04-18T04:51:02.801Z,100219.06
2023-04-18T04:53:33.071Z,100224.97
2023-04-18T04:55:59.858Z,100213.56
2023-04-18T04:58:27.197Z,100220.44
2023-04-18T05:00:56.740Z,100224.56
2023-04-18T05:03:24.056Z,100229.84
2023-04-18T05:05:51.040Z,100228.78
2023-04-18T05:08:18.097Z,100223.94
2023-04-18T05:10:45.978Z,100221.81
2023-04-18T05:13:13.224Z,100219.84
2023-04-18T05:15:40.263Z,100232.09
2023-04-18T05:18:07.391Z,100232.94
2023-04-18T05:20:34.504Z,100231.38
2023-04-18T05:23:01.929Z,100236.31
2023-04-18T05:25:29.918Z,100232.44
2023-04-18T05:27:57.254Z,100236.50
2023-04-18T05:30:24.151Z,100243.06
2023-04-18T05:32:51.251Z,100238.13
2023-04-18T05:35:18.300Z,100238.16
2023-04-18T05:37:45.367Z,100237.94
2023-04-18T05:40:12.963Z,100241.03
2023-04-18T05:42:39.996Z,100243.16
2023-04-18T05:45:07.316Z,100241.34
2023-04-18T05:47:34.424Z,100245.19
2023-04-18T05:50:01.481Z,100234.94
2023-04-18T05:52:28.629Z,100246.09
2023-04-18T05:54:55.502Z,100249.78
2023-04-18T05:57:22.583Z,100242.41
2023-04-18T05:59:49.465Z,100246.31
2023-04-18T06:02:16.703Z,100238.81
2023-04-18T06:04:44.109Z,100249.09
2023-04-18T06:07:11.514Z,100248.66
2023-04-18T06:09:38.283Z,100250.13
2023-04-18T06:12:05.621Z,100251.22
2023-04-18T06:14:35.397Z,100258.06
2023-04-18T06:17:03.222Z,100254.78
2023-04-18T06:19:30.007Z,100256.09
2023-04-18T06:21:57.050Z,100250.34
2023-04-18T06:24:23.859Z,100258.91
2023-04-18T06:26:51.118Z,100264.50
2023-04-18T06:29:18.292Z,100256.69
2023-04-18T06:31:46.712Z,100263.53
2023-04-18T06:34:13.859Z,100264.59
2023-04-18T06:36:43.907Z,100267.31
2023-04-18T06:39:10.693Z,100265.19
2023-04-18T06:41:37.807Z,100259.63
2023-04-18T06:44:04.849Z,100263.44
2023-04-18T06:46:32.752Z,100264.06
2023-04-18T06:48:59.865Z,100269.41
2023-04-18T06:51:27.438Z,100267.91
2023-04-18T06:53:54.385Z,100270.97
2023-04-18T06:56:21.635Z,100275.13
2023-04-18T06:58:49.739Z,100272.59
2023-04-18T07:01:16.905Z,100273.50
2023-04-18T07:03:43.892Z,100273.50
2023-04-18T07:06:11.138Z,100272.41
2023-04-18T07:08:38.362Z,100275.22
2023-04-18T07:11:06.426Z,100267.88
2023-04-18T07:13:33.328Z,100273.94
2023-04-18T07:16:01.545Z,100280.53
2023-04-18T07:18:37.187Z,100275.81
2023-04-18T07:21:08.990Z,100279.31
2023-04-18T07:23:36.146Z,100274.28
2023-04-18T07:26:05.345Z,100287.44
2023-04-18T07:28:32.906Z,100287.59
2023-04-18T07:31:01.291Z,100290.13
2023-04-18T07:33:31.613Z,100292.28
2023-04-18T07:35:59.008Z,100285.53
2023-04-18T07:38:26.037Z,100289.44
2023-04-18T07:40:57.559Z,100289.34
2023-04-18T07:43:24.345Z,100298.41
2023-04-18T07:45:52.428Z,100303.34
2023-04-18T07:48:22.142Z,100297.44
2023-04-18T07:50:49.553Z,100302.97
2023-04-18T07:53:16.753Z,100299.13
2023-04-18T07:55:43.869Z,100307.94
2023-04-18T07:58:11.147Z,100313.13
2023-04-18T08:00:43.812Z,100312.03
2023-04-18T08:03:12.444Z,100309.38
2023-04-18T08:05:40.717Z,100310.09
2023-04-18T08:08:09.438Z,100306.13
2023-04-18T08:10:37.230Z,100315.72
2023-04-18T08:13:04.413Z,100313.44
2023-04-18T08:15:32.718Z,100311.84
2023-04-18T08:18:00.788Z,100308.31
2023-04-18T08:20:28.123Z,100312.91
2023-04-18T08:25:25.453Z,100307.44
2023-04-18T08:27:52.201Z,100308.44
2023-04-18T08:30:19.431Z,100309.84
2023-04-18T08:32:46.399Z,100318.09
2023-04-18T08:35:13.613Z,100320.19
2023-04-18T08:37:40.464Z,100318.66
2023-04-18T08:40:08.138Z,100317.22
2023-04-18T08:42:37.269Z,100327.16
2023-04-18T08:45:09.471Z,100316.63
2023-04-18T08:47:36.284Z,100317.34
2023-04-18T08:50:04.053Z,100317.94
2023-04-18T08:52:34.203Z,100318.94
2023-04-18T08:55:02.770Z,100318.78
2023-04-18T08:57:31.095Z,100326.22
2023-04-18T09:00:00.637Z,100319.69
2023-04-18T09:02:44.854Z,100318.13
2023-04-18T09:05:19.947Z,100324.94
2023-04-18T09:07:53.067Z,100323.13
2023-04-18T09:10:38.351Z,100331.94
2023-04-18T09:13:05.630Z,100320.91
2023-04-18T09:15:32.892Z,100313.97
2023-04-18T09:18:02.789Z,100311.31
2023-04-18T09:20:38.594Z,100319.66
2023-04-18T09:23:14.686Z,100322.06
2023-04-18T09:25:44.556Z,100326.44
2023-04-18T09:28:33.131Z,100329.13
2023-04-18T09:31:12.759Z,100321.84
2023-04-18T09:33:43.301Z,100323.41
2023-04-18T09:36:16.740Z,100317.66
2023-04-18T09:38:43.572Z,100311.59
2023-04-18T09:41:12.192Z,100311.47
2023-04-18T09:43:39.544Z,100314.13
2023-04-18T09:46:08.724Z,100312.53
2023-04-18T09:48:35.848Z,100311.41
2023-04-18T09:51:15.954Z,100314.25
2023-04-18T09:53:45.000Z,100316.34
2023-04-18T09:56:27.693Z,100312.81
2023-04-18T09:59:06.355Z,100311.00
2023-04-18T10:01:34.702Z,100309.94
2023-04-18T10:04:04.273Z,100309.22
2023-04-18T10:06:34.376Z,100304.66
2023-04-18T10:09:04.402Z,100300.72
2023-04-18T10:11:32.303Z,100304.34
2023-04-18T10:14:04.422Z,100300.53
2023-04-18T10:16:34.126Z,100295.47
2023-04-18T10:19:23.095Z,100305.38
2023-04-18T10:21:58.287Z,100305.56
2023-04-18T10:24:49.629Z,100306.94
2023-04-18T10:27:17.843Z,100305.25
2023-04-18T10:29:54.605Z,100311.75
2023-04-18T10:32:24.463Z,100310.19
2023-04-18T10:34:53.822Z,100312.88
2023-04-18T10:37:20.918Z,100311.16
2023-04-18T10:39:53.230Z,100307.88
2023-04-18T10:42:51.902Z,100310.88
2023-04-18T10:45:18.676Z,100304.25
2023-04-18T10:47:46.118Z,100299.75
2023-04-18T10:50:13.242Z,100298.53
2023-04-18T10:52:40.496Z,100302.47
2023-04-18T10:55:16.437Z,100298.53
2023-04-18T10:57:48.581Z,100302.72
2023-04-18T11:00:17.958Z,100301.88
2023-04-18T11:02:53.780Z,100296.41
2023-04-18T11:05:23.608Z,100297.09
2023-04-18T11:07:54.621Z,100294.25
2023-04-18T11:10:23.947Z,100296.63
2023-04-18T11:12:51.739Z,100300.72
2023-04-18T11:15:23.560Z,100292.69
2023-04-18T11:18:04.484Z,100299.88
2023-04-18T11:20:39.390Z,100290.00
2023-04-18T11:23:21.428Z,100300.66
2023-04-18T11:25:51.444Z,100298.72
2023-04-18T11:28:20.957Z,100296.41
2023-04-18T11:30:48.341Z,100295.56
2023-04-18T11:33:15.915Z,100304.31
2023-04-18T11:35:44.883Z,100299.56
2023-04-18T11:38:15.956Z,100303.50
2023-04-18T11:40:50.422Z,100298.44
2023-04-18T11:43:22.381Z,100300.44
2023-04-18T11:46:07.478Z,100305.25
2023-04-18T11:48:39.901Z,100302.75
2023-04-18T11:51:08.036Z,100294.03
2023-04-18T11:53:36.298Z,100295.16
2023-04-18T11:56:04.337Z,100289.56
2023-04-18T11:58:38.084Z,100298.41
2023-04-18T12:01:21.461Z,100281.19
2023-04-18T12:04:06.584Z,100287.47
2023-04-18T12:06:53.938Z,100285.75
2023-04-18T12:09:24.488Z,100283.50
2023-04-18T12:12:02.801Z,100276.44
2023-04-18T12:14:30.637Z,100279.59
2023-04-18T12:16:57.548Z,100283.16
2023-04-18T12:19:29.386Z,100288.72
2023-04-18T12:22:00.964Z,100291.53
2023-04-18T12:24:32.116Z,100290.44
2023-04-18T12:26:59.333Z,100289.84
2023-04-18T12:29:28.228Z,100294.75
2023-04-18T12:31:55.383Z,100282.44
2023-04-18T12:34:22.486Z,100297.97
2023-04-18T12:36:49.489Z,100293.50
2023-04-18T12:39:16.559Z,100292.09
2023-04-18T12:41:43.967Z,100293.78
2023-04-18T12:44:11.077Z,100294.31
2023-04-18T12:46:37.949Z,100281.69
2023-04-18T12:49:05.173Z,100292.22
2023-04-18T12:51:31.960Z,100287.41
2023-04-18T12:53:59.155Z,100296.94
2023-04-18T12:56:26.014Z,100287.56
2023-04-18T12:58:53.066Z,100275.25
2023-04-18T13:01:20.150Z,100280.78
2023-04-18T13:03:56.364Z,100276.13
2023-04-18T13:06:24.542Z,100276.50
2023-04-18T13:08:51.883Z,100274.41
2023-04-18T13:11:18.683Z,100278.56
2023-04-18T13:13:46.639Z,100283.38
2023-04-18T13:16:13.483Z,100277.34
2023-04-18T13:18:40.908Z,100269.25
2023-04-18T13:21:07.691Z,100266.19
2023-04-18T13:23:34.813Z,100267.09
2023-04-18T13:26:01.574Z,100277.53
2023-04-18T13:28:28.643Z,100277.88
2023-04-18T13:30:55.474Z,100278.91
2023-04-18T13:33:22.593Z,100281.41
2023-04-18T13:35:49.422Z,100277.97
2023-04-18T13:38:16.485Z,100276.25
2023-04-18T13:40:46.424Z,100279.38
2023-04-18T13:43:15.432Z,100273.75
2023-04-18T13:45:42.303Z,100272.94
2023-04-18T13:48:09.734Z,100265.59
2023-04-18T13:50:42.719Z,100270.91
2023-04-18T13:53:09.623Z,100274.56
2023-04-18T13:55:36.874Z,100269.69
2023-04-18T13:58:03.950Z,100276.50
2023-04-18T14:00:31.169Z,100271.03
2023-04-18T14:02:58.382Z,100273.94
2023-04-18T14:05:25.312Z,100271.72
2023-04-18T14:07:52.512Z,100274.34
2023-04-18T14:10:19.300Z,100270.56
2023-04-18T14:12:46.928Z,100266.91
2023-04-18T14:15:13.874Z,100263.38
2023-04-18T14:17:43.264Z,100256.19
2023-04-18T14:20:11.965Z,100248.97
2023-04-18T14:22:39.505Z,100259.31
2023-04-18T14:25:06.870Z,100254.44
2023-04-18T14:27:34.116Z,100265.22
2023-04-18T14:30:00.925Z,100260.19
2023-04-18T14:32:28.062Z,100255.44
2023-04-18T14:34:54.879Z,100262.72
2023-04-18T14:37:22.307Z,100270.66
2023-04-18T14:39:49.781Z,100274.38
2023-04-18T14:42:17.632Z,100263.28
2023-04-18T14:44:44.415Z,100279.03
2023-04-18T14:47:11.544Z,100267.88
2023-04-18T14:49:38.590Z,100269.72
2023-04-18T14:52:05.784Z,100272.94
2023-04-18T14:54:32.921Z,100262.91
2023-04-18T14:57:01.505Z,100269.09
2023-04-18T14:59:29.064Z,100269.09
2023-04-18T15:01:56.296Z,100263.59
2023-04-18T15:04:23.355Z,100264.84
2023-04-18T15:06:50.663Z,100265.72
2023-04-18T15:09:17.466Z,100268.44
2023-04-18T15:11:44.636Z,100264.28
2023-04-18T15:14:12.102Z,100267.72
2023-04-18T15:16:40.867Z,100266.75
2023-04-18T15:19:08.153Z,100257.25
2023-04-18T15:21:35.699Z,100262.53
2023-04-18T15:24:02.482Z,100259.78
2023-04-18T15:26:31.081Z,100268.28
2023-04-18T15:29:03.743Z,100261.41
2023-04-18T15:31:31.241Z,100258.50
2023-04-18T15:33:58.267Z,100256.13
2023-04-18T15:36:25.479Z,100257.69
2023-04-18T15:38:52.367Z,100260.59
2023-04-18T15:41:19.829Z,100265.31
2023-04-18T15:43:49.388Z,100271.84
2023-04-18T15:46:16.499Z,100276.25
2023-04-18T15:48:43.338Z,100276.69
2023-04-18T15:51:10.409Z,100269.03
2023-04-18T15:53:37.255Z,100271.03
2023-04-18T15:56:05.944Z,100280.25
2023-04-18T15:58:32.741Z,100282.63
2023-04-18T16:01:00.504Z,100282.97
2023-04-18T16:03:27.674Z,100283.91
2023-04-18T16:05:54.883Z,100289.88
2023-04-18T16:08:24.426Z,100293.84
2023-04-18T16:10:54.413Z,100289.94
2023-04-18T16:13:21.328Z,100295.19
2023-04-18T16:15:51.234Z,100308.78
2023-04-18T16:18:18.121Z,100296.31
2023-04-18T16:20:45.308Z,100301.75
2023-04-18T16:23:12.127Z,100301.66
2023-04-18T16:25:41.326Z,100299.03
2023-04-18T16:28:08.182Z,100302.47
2023-04-18T16:30:35.246Z,100309.09
2023-04-18T16:33:02.188Z,100308.81
2023-04-18T16:35:32.858Z,100301.63
2023-04-18T16:37:59.709Z,100305.72
2023-04-18T16:40:30.547Z,100314.00
2023-04-18T16:42:57.944Z,100305.56
2023-04-18T16:45:25.006Z,100302.75
2023-04-18T16:47:51.794Z,100312.81
2023-04-18T16:50:19.011Z,100315.16
2023-04-18T16:52:45.852Z,100319.94
2023-04-18T16:55:12.964Z,100312.91
2023-04-18T16:57:39.726Z,100314.44
2023-04-18T17:00:08.260Z,100312.72
2023-04-18T17:02:35.288Z,100318.13
2023-04-18T17:05:02.794Z,100315.28
2023-04-18T17:07:30.374Z,100318.75
2023-04-18T17:09:59.019Z,100318.44
2023-04-18T17:12:25.861Z,100317.09
2023-04-18T17:14:52.963Z,100318.75
2023-04-18T17:17:19.742Z,100320.13
2023-04-18T17:19:46.811Z,100315.16
2023-04-18T17:22:13.651Z,100318.94
2023-04-18T17:24:40.750Z,100328.44
2023-04-18T17:27:07.592Z,100322.50
2023-04-18T17:29:34.704Z,100319.53
2023-04-18T17:32:01.563Z,100321.47
2023-04-18T17:34:28.691Z,100326.56
2023-04-18T17:36:55.578Z,100332.88
2023-04-18T17:39:22.754Z,100330.84
2023-04-18T17:41:49.731Z,100331.22
2023-04-18T17:44:16.927Z,100334.66
2023-04-18T17:46:43.716Z,100339.75
2023-04-18T17:49:11.398Z,100337.94
2023-04-18T17:51:38.865Z,100340.59
2023-04-18T17:54:06.042Z,100337.84
2023-04-18T17:56:32.834Z,100341.84
2023-04-18T17:58:59.930Z,100346.34
2023-04-18T18:01:28.816Z,100343.06
2023-04-18T18:03:57.008Z,100345.97
2023-04-18T18:06:23.936Z,100350.91
2023-04-18T18:08:51.049Z,100351.53
2023-04-18T18:11:17.855Z,100353.56
2023-04-18T18:13:46.681Z,100362.59
2023-04-18T18:16:13.818Z,100359.47
2023-04-18T18:18:41.526Z,100359.81
2023-04-18T18:21:08.297Z,100370.78
2023-04-18T18:23:35.463Z,100366.69
2023-04-18T18:26:02.374Z,100367.19
2023-04-18T18:28:29.540Z,100366.59
2023-04-18T18:30:56.396Z,100371.69
2023-04-18T18:33:23.563Z,100375.53
2023-04-18T18:35:51.047Z,100370.22
2023-04-18T18:38:18.177Z,100369.00
2023-04-18T18:40:45.373Z,100371.19
2023-04-18T18:43:13.030Z,100378.69
2023-04-18T18:45:39.865Z,100375.78
2023-04-18T18:48:07.372Z,100382.53
2023-04-18T18:50:34.462Z,100379.41
2023-04-18T18:53:01.918Z,100372.94
2023-04-18T18:55:29.955Z,100385.97
2023-04-18T18:57:57.071Z,100393.66
2023-04-18T19:00:24.000Z,100386.78
2023-04-18T19:02:51.376Z,100392.94
2023-04-18T19:05:18.297Z,100398.44
2023-04-18T19:07:45.458Z,100399.28
2023-04-18T19:10:12.295Z,100412.81
2023-04-18T19:12:39.439Z,100422.41
2023-04-18T19:15:06.796Z,100411.69
2023-04-18T19:17:34.031Z,100424.97
2023-04-18T19:20:01.640Z,100430.75
2023-04-18T19:22:30.017Z,100421.81
2023-04-18T19:24:57.394Z,100424.88
2023-04-18T19:27:24.457Z,100432.84
2023-04-18T19:29:51.383Z,100430.09
2023-04-18T19:32:18.524Z,100422.84
2023-04-18T19:34:45.302Z,100421.81
2023-04-18T19:37:12.358Z,100431.59
2023-04-18T19:39:39.141Z,100427.38
2023-04-18T19:42:07.385Z,100436.75
2023-04-18T19:44:34.577Z,100437.09
2023-04-18T19:47:01.622Z,100441.56
2023-04-18T19:49:28.428Z,100444.44
2023-04-18T19:51:55.562Z,100444.88
2023-04-18T19:54:22.335Z,100447.41
2023-04-18T19:56:49.817Z,100445.41
2023-04-18T19:59:16.760Z,100443.47
2023-04-18T20:01:43.970Z,100449.63
2023-04-18T20:04:10.932Z,100443.88
2023-04-18T20:06:38.367Z,100446.66
2023-04-18T20:09:05.773Z,100452.91
2023-04-18T20:11:33.431Z,100443.03
2023-04-18T20:14:00.753Z,100446.72
2023-04-18T20:16:27.948Z,100446.97
2023-04-18T20:18:55.220Z,100442.50
2023-04-18T20:21:22.456Z,100452.16
2023-04-18T20:23:49.486Z,100444.31
2023-04-18T20:26:16.851Z,100453.13
2023-04-18T20:28:43.794Z,100448.53
2023-04-18T20:31:12.269Z,100441.56
2023-04-18T20:33:41.926Z,100440.81
2023-04-18T20:36:09.207Z,100437.66
2023-04-18T20:38:36.932Z,100437.66
2023-04-18T20:41:04.225Z,100441.16
2023-04-18T20:43:37.374Z,100448.50
2023-04-18T20:46:04.849Z,100445.84
2023-04-18T20:48:33.728Z,100444.66
2023-04-18T20:51:04.156Z,100448.94
2023-04-18T20:53:31.003Z,100455.53
2023-04-18T20:55:58.428Z,100448.88
2023-04-18T20:58:25.470Z,100449.84
2023-04-18T21:00:52.676Z,100450.06
2023-04-18T21:03:19.595Z,100454.63
2023-04-18T21:05:46.822Z,100451.34
2023-04-18T21:08:13.704Z,100458.59
2023-04-18T21:10:40.823Z,100448.81
2023-04-18T21:13:09.275Z,100447.13
2023-04-18T21:15:36.512Z,100444.81
2023-04-18T21:18:03.615Z,100433.34
2023-04-18T21:20:30.786Z,100437.16
2023-04-18T21:22:57.614Z,100441.22
2023-04-18T21:25:24.866Z,100441.31
2023-04-18T21:27:51.858Z,100435.91
2023-04-18T21:30:19.091Z,100436.63
2023-04-18T21:32:47.163Z,100436.03
2023-04-18T21:35:20.204Z,100438.25
2023-04-18T21:37:48.327Z,100439.53
2023-04-18T21:40:18.125Z,100435.38
2023-04-18T21:42:44.913Z,100428.38
2023-04-18T21:45:12.136Z,100425.00
2023-04-18T21:47:39.398Z,100425.75
2023-04-18T21:50:07.166Z,100428.81
2023-04-18T21:52:36.362Z,100425.69
2023-04-18T21:55:04.958Z,100424.06
2023-04-18T21:57:31.762Z,100428.66
2023-04-18T21:59:58.932Z,100415.63
2023-04-18T22:02:27.354Z,100430.69
2023-04-18T22:04:54.881Z,100423.78
2023-04-18T22:07:24.096Z,100424.63
2023-04-18T22:09:51.293Z,100416.56
2023-04-18T22:12:20.845Z,100417.63
2023-04-18T22:14:49.004Z,100418.59
2023-04-18T22:17:15.926Z,100420.50
2023-04-18T22:19:44.575Z,100414.56
2023-04-18T22:22:11.700Z,100413.72
2023-04-18T22:24:38.852Z,100410.47
2023-04-18T22:27:05.915Z,100414.97
2023-04-18T22:29:33.262Z,100409.50
2023-04-18T22:32:02.720Z,100405.03
2023-04-18T22:34:29.872Z,100413.09
2023-04-18T22:36:56.680Z,100403.34
2023-04-18T22:39:24.797Z,100407.56
2023-04-18T22:41:51.571Z,100398.06
2023-04-18T22:44:18.627Z,100397.28
2023-04-18T22:46:47.518Z,100392.00
2023-04-18T22:49:14.539Z,100392.06
2023-04-18T22:51:42.209Z,100390.63
2023-04-18T22:54:09.236Z,100387.84
2023-04-18T22:56:37.245Z,100382.31
2023-04-18T22:59:04.256Z,100379.78
2023-04-18T23:01:31.140Z,100382.44
2023-04-18T23:03:58.512Z,100367.63
2023-04-18T23:06:26.434Z,100380.09
2023-04-18T23:08:53.513Z,100370.78
2023-04-18T23:11:21.162Z,100369.44
2023-04-18T23:13:48.210Z,100367.81
2023-04-18T23:16:15.007Z,100363.47
2023-04-18T23:18:42.090Z,100363.47
2023-04-18T23:21:08.850Z,100355.94
2023-04-18T23:23:35.887Z,100357.88
2023-04-18T23:26:02.671Z,100356.25
2023-04-18T23:28:29.778Z,100353.63
2023-04-18T23:30:56.590Z,100352.03
2023-04-18T23:33:23.657Z,100342.41
2023-04-18T23:35:50.449Z,100343.25
2023-04-18T23:38:17.493Z,100345.78
2023-04-18T23:40:44.213Z,100337.00
2023-04-18T23:43:11.236Z,100328.31
2023-04-18T23:45:37.984Z,100328.31
2023-04-18T23:48:05.073Z,100331.16
2023-04-18T23:50:31.894Z,100322.50
2023-04-18T23:52:58.949Z,100323.34
2023-04-18T23:55:25.709Z,100318.88
2023-04-18T23:57:52.740Z,100316.47
